sensor_id;sensor_type;location;lat;lon;timestamp;P1;durP1;ratioP1;P2;durP2;ratioP2
29382;SDS011;16365;51.598;7.668;2023-04-06T00:00:04;26.40;;;12.52;;
29382;SDS011;16365;51.598;7.668;2023-04-06T00:02:35;28.52;;;13.20;;
29382;SDS011;16365;51.598;7.668;2023-04-06T00:05:02;25.58;;;12.73;;
29382;SDS011;16365;51.598;7.668;2023-04-06T00:07:28;22.75;;;11.85;;
29382;SDS011;16365;51.598;7.668;2023-04-06T00:09:55;22.60;;;12.13;;
29382;SDS011;16365;51.598;7.668;2023-04-06T00:12:22;23.60;;;13.13;;
29382;SDS011;16365;51.598;7.668;2023-04-06T00:14:48;23.38;;;13.27;;
29382;SDS011;16365;51.598;7.668;2023-04-06T00:17:15;26.90;;;13.52;;
29382;SDS011;16365;51.598;7.668;2023-04-06T00:19:41;23.15;;;12.50;;
29382;SDS011;16365;51.598;7.668;2023-04-06T00:22:08;29.35;;;13.43;;
29382;SDS011;16365;51.598;7.668;2023-04-06T00:24:34;30.90;;;13.40;;
29382;SDS011;16365;51.598;7.668;2023-04-06T00:27:01;24.75;;;13.32;;
29382;SDS011;16365;51.598;7.668;2023-04-06T00:29:27;30.73;;;14.77;;
29382;SDS011;16365;51.598;7.668;2023-04-06T00:31:54;23.35;;;13.43;;
29382;SDS011;16365;51.598;7.668;2023-04-06T00:34:21;24.58;;;13.00;;
29382;SDS011;16365;51.598;7.668;2023-04-06T00:36:47;26.63;;;13.40;;
29382;SDS011;16365;51.598;7.668;2023-04-06T00:39:14;27.58;;;13.48;;
29382;SDS011;16365;51.598;7.668;2023-04-06T00:41:42;30.08;;;14.00;;
29382;SDS011;16365;51.598;7.668;2023-04-06T00:44:12;23.95;;;13.55;;
29382;SDS011;16365;51.598;7.668;2023-04-06T00:46:39;26.17;;;12.77;;
29382;SDS011;16365;51.598;7.668;2023-04-06T00:49:05;23.40;;;13.45;;
29382;SDS011;16365;51.598;7.668;2023-04-06T00:51:32;27.40;;;13.88;;
29382;SDS011;16365;51.598;7.668;2023-04-06T00:53:58;27.60;;;14.10;;
29382;SDS011;16365;51.598;7.668;2023-04-06T00:56:25;28.88;;;14.45;;
29382;SDS011;16365;51.598;7.668;2023-04-06T00:58:52;28.85;;;14.02;;
29382;SDS011;16365;51.598;7.668;2023-04-06T01:01:19;29.40;;;13.75;;
29382;SDS011;16365;51.598;7.668;2023-04-06T01:03:46;31.38;;;13.43;;
29382;SDS011;16365;51.598;7.668;2023-04-06T01:06:15;26.83;;;14.55;;
29382;SDS011;16365;51.598;7.668;2023-04-06T01:08:42;28.70;;;14.32;;
29382;SDS011;16365;51.598;7.668;2023-04-06T01:11:08;26.98;;;14.10;;
29382;SDS011;16365;51.598;7.668;2023-04-06T01:13:35;27.08;;;14.32;;
29382;SDS011;16365;51.598;7.668;2023-04-06T01:16:01;31.75;;;15.07;;
29382;SDS011;16365;51.598;7.668;2023-04-06T01:18:29;23.00;;;13.18;;
29382;SDS011;16365;51.598;7.668;2023-04-06T01:20:55;29.02;;;14.02;;
29382;SDS011;16365;51.598;7.668;2023-04-06T01:23:22;24.67;;;14.05;;
29382;SDS011;16365;51.598;7.668;2023-04-06T01:25:48;23.75;;;13.52;;
29382;SDS011;16365;51.598;7.668;2023-04-06T01:28:15;25.90;;;13.77;;
29382;SDS011;16365;51.598;7.668;2023-04-06T01:30:41;27.33;;;13.60;;
29382;SDS011;16365;51.598;7.668;2023-04-06T01:33:08;26.30;;;13.98;;
29382;SDS011;16365;51.598;7.668;2023-04-06T01:35:34;28.20;;;13.23;;
29382;SDS011;16365;51.598;7.668;2023-04-06T01:38:01;25.35;;;14.13;;
29382;SDS011;16365;51.598;7.668;2023-04-06T01:40:28;24.45;;;13.77;;
29382;SDS011;16365;51.598;7.668;2023-04-06T01:42:54;24.52;;;12.98;;
29382;SDS011;16365;51.598;7.668;2023-04-06T01:45:21;27.55;;;13.80;;
29382;SDS011;16365;51.598;7.668;2023-04-06T01:47:47;22.27;;;13.40;;
29382;SDS011;16365;51.598;7.668;2023-04-06T01:50:16;31.63;;;14.07;;
29382;SDS011;16365;51.598;7.668;2023-04-06T01:52:43;25.02;;;13.25;;
29382;SDS011;16365;51.598;7.668;2023-04-06T01:55:09;28.52;;;13.70;;
29382;SDS011;16365;51.598;7.668;2023-04-06T01:57:36;27.67;;;13.82;;
29382;SDS011;16365;51.598;7.668;2023-04-06T02:00:02;29.60;;;13.90;;
29382;SDS011;16365;51.598;7.668;2023-04-06T02:02:29;31.08;;;14.23;;
29382;SDS011;16365;51.598;7.668;2023-04-06T02:04:55;27.65;;;13.93;;
29382;SDS011;16365;51.598;7.668;2023-04-06T02:07:22;29.42;;;14.57;;
29382;SDS011;16365;51.598;7.668;2023-04-06T02:09:48;23.83;;;13.90;;
29382;SDS011;16365;51.598;7.668;2023-04-06T02:12:15;24.40;;;13.15;;
29382;SDS011;16365;51.598;7.668;2023-04-06T02:14:41;27.42;;;14.85;;
29382;SDS011;16365;51.598;7.668;2023-04-06T02:17:08;31.13;;;15.80;;
29382;SDS011;16365;51.598;7.668;2023-04-06T02:19:35;24.10;;;14.23;;
29382;SDS011;16365;51.598;7.668;2023-04-06T02:22:01;26.83;;;13.15;;
29382;SDS011;16365;51.598;7.668;2023-04-06T02:24:29;24.73;;;14.45;;
29382;SDS011;16365;51.598;7.668;2023-04-06T02:26:56;26.45;;;14.73;;
29382;SDS011;16365;51.598;7.668;2023-04-06T02:29:22;21.90;;;13.65;;
29382;SDS011;16365;51.598;7.668;2023-04-06T02:31:48;28.08;;;13.85;;
29382;SDS011;16365;51.598;7.668;2023-04-06T02:34:15;25.02;;;14.38;;
29382;SDS011;16365;51.598;7.668;2023-04-06T02:36:47;25.77;;;14.75;;
29382;SDS011;16365;51.598;7.668;2023-04-06T02:39:13;25.50;;;12.80;;
29382;SDS011;16365;51.598;7.668;2023-04-06T02:41:40;23.48;;;13.57;;
29382;SDS011;16365;51.598;7.668;2023-04-06T02:44:07;25.90;;;13.43;;
29382;SDS011;16365;51.598;7.668;2023-04-06T02:46:34;25.02;;;13.75;;
29382;SDS011;16365;51.598;7.668;2023-04-06T02:49:01;24.58;;;14.13;;
29382;SDS011;16365;51.598;7.668;2023-04-06T02:51:28;24.58;;;14.07;;
29382;SDS011;16365;51.598;7.668;2023-04-06T02:53:54;26.33;;;13.05;;
29382;SDS011;16365;51.598;7.668;2023-04-06T02:56:21;24.98;;;12.85;;
29382;SDS011;16365;51.598;7.668;2023-04-06T02:58:48;22.58;;;12.38;;
29382;SDS011;16365;51.598;7.668;2023-04-06T03:01:14;26.13;;;13.30;;
29382;SDS011;16365;51.598;7.668;2023-04-06T03:03:41;23.40;;;13.60;;
29382;SDS011;16365;51.598;7.668;2023-04-06T03:06:08;27.45;;;13.80;;
29382;SDS011;16365;51.598;7.668;2023-04-06T03:08:34;22.20;;;12.65;;
29382;SDS011;16365;51.598;7.668;2023-04-06T03:11:01;23.27;;;12.55;;
29382;SDS011;16365;51.598;7.668;2023-04-06T03:13:27;23.02;;;13.52;;
29382;SDS011;16365;51.598;7.668;2023-04-06T03:15:54;21.80;;;12.70;;
29382;SDS011;16365;51.598;7.668;2023-04-06T03:18:21;22.98;;;12.85;;
29382;SDS011;16365;51.598;7.668;2023-04-06T03:20:49;26.98;;;14.43;;
29382;SDS011;16365;51.598;7.668;2023-04-06T03:23:16;28.20;;;13.77;;
29382;SDS011;16365;51.598;7.668;2023-04-06T03:25:43;23.30;;;12.85;;
29382;SDS011;16365;51.598;7.668;2023-04-06T03:28:10;22.63;;;12.43;;
29382;SDS011;16365;51.598;7.668;2023-04-06T03:30:37;25.15;;;13.32;;
29382;SDS011;16365;51.598;7.668;2023-04-06T03:33:03;27.13;;;13.18;;
29382;SDS011;16365;51.598;7.668;2023-04-06T03:35:30;21.88;;;12.60;;
29382;SDS011;16365;51.598;7.668;2023-04-06T03:37:56;22.70;;;13.00;;
29382;SDS011;16365;51.598;7.668;2023-04-06T03:40:23;23.90;;;12.73;;
29382;SDS011;16365;51.598;7.668;2023-04-06T03:42:50;23.20;;;13.00;;
29382;SDS011;16365;51.598;7.668;2023-04-06T03:45:16;22.35;;;11.90;;
29382;SDS011;16365;51.598;7.668;2023-04-06T03:47:43;23.50;;;12.55;;
29382;SDS011;16365;51.598;7.668;2023-04-06T03:50:09;23.35;;;13.50;;
29382;SDS011;16365;51.598;7.668;2023-04-06T03:52:36;30.65;;;13.38;;
29382;SDS011;16365;51.598;7.668;2023-04-06T03:55:03;27.80;;;12.68;;
29382;SDS011;16365;51.598;7.668;2023-04-06T03:57:29;24.10;;;12.50;;
29382;SDS011;16365;51.598;7.668;2023-04-06T03:59:56;27.80;;;14.07;;
29382;SDS011;16365;51.598;7.668;2023-04-06T04:02:22;26.02;;;13.27;;
29382;SDS011;16365;51.598;7.668;2023-04-06T04:04:49;23.10;;;13.73;;
29382;SDS011;16365;51.598;7.668;2023-04-06T04:07:17;26.10;;;13.60;;
29382;SDS011;16365;51.598;7.668;2023-04-06T04:09:43;29.38;;;13.73;;
29382;SDS011;16365;51.598;7.668;2023-04-06T04:12:10;25.63;;;13.13;;
29382;SDS011;16365;51.598;7.668;2023-04-06T04:14:36;25.20;;;13.48;;
29382;SDS011;16365;51.598;7.668;2023-04-06T04:17:02;27.33;;;13.60;;
29382;SDS011;16365;51.598;7.668;2023-04-06T04:19:29;20.15;;;13.25;;
29382;SDS011;16365;51.598;7.668;2023-04-06T04:21:55;21.10;;;11.18;;
29382;SDS011;16365;51.598;7.668;2023-04-06T04:24:22;22.35;;;12.70;;
29382;SDS011;16365;51.598;7.668;2023-04-06T04:26:48;22.92;;;12.90;;
29382;SDS011;16365;51.598;7.668;2023-04-06T04:29:14;22.27;;;12.60;;
29382;SDS011;16365;51.598;7.668;2023-04-06T04:31:41;26.70;;;12.85;;
29382;SDS011;16365;51.598;7.668;2023-04-06T04:34:07;26.00;;;13.52;;
29382;SDS011;16365;51.598;7.668;2023-04-06T04:36:34;23.67;;;12.63;;
29382;SDS011;16365;51.598;7.668;2023-04-06T04:39:01;23.02;;;13.13;;
29382;SDS011;16365;51.598;7.668;2023-04-06T04:41:27;31.92;;;13.95;;
29382;SDS011;16365;51.598;7.668;2023-04-06T04:43:55;25.77;;;13.65;;
29382;SDS011;16365;51.598;7.668;2023-04-06T04:46:22;30.90;;;14.50;;
29382;SDS011;16365;51.598;7.668;2023-04-06T04:48:49;23.52;;;13.38;;
29382;SDS011;16365;51.598;7.668;2023-04-06T04:51:16;27.95;;;14.00;;
29382;SDS011;16365;51.598;7.668;2023-04-06T04:53:42;32.35;;;14.45;;
29382;SDS011;16365;51.598;7.668;2023-04-06T04:56:09;29.17;;;14.15;;
29382;SDS011;16365;51.598;7.668;2023-04-06T04:58:35;25.48;;;13.23;;
29382;SDS011;16365;51.598;7.668;2023-04-06T05:01:02;28.73;;;12.80;;
29382;SDS011;16365;51.598;7.668;2023-04-06T05:03:28;28.20;;;12.18;;
29382;SDS011;16365;51.598;7.668;2023-04-06T05:05:55;25.55;;;12.75;;
29382;SDS011;16365;51.598;7.668;2023-04-06T05:08:22;26.88;;;14.18;;
29382;SDS011;16365;51.598;7.668;2023-04-06T05:10:48;26.80;;;14.27;;
29382;SDS011;16365;51.598;7.668;2023-04-06T05:13:15;33.83;;;14.43;;
29382;SDS011;16365;51.598;7.668;2023-04-06T05:15:42;33.40;;;14.07;;
29382;SDS011;16365;51.598;7.668;2023-04-06T05:18:09;29.40;;;13.82;;
29382;SDS011;16365;51.598;7.668;2023-04-06T05:20:36;29.67;;;12.80;;
29382;SDS011;16365;51.598;7.668;2023-04-06T05:23:02;30.60;;;13.88;;
29382;SDS011;16365;51.598;7.668;2023-04-06T05:25:29;29.13;;;13.65;;
29382;SDS011;16365;51.598;7.668;2023-04-06T05:27:56;24.80;;;12.85;;
29382;SDS011;16365;51.598;7.668;2023-04-06T05:30:22;25.90;;;13.85;;
29382;SDS011;16365;51.598;7.668;2023-04-06T05:32:49;28.77;;;13.93;;
29382;SDS011;16365;51.598;7.668;2023-04-06T05:35:16;34.50;;;14.43;;
29382;SDS011;16365;51.598;7.668;2023-04-06T05:37:43;33.63;;;14.80;;
29382;SDS011;16365;51.598;7.668;2023-04-06T05:40:10;36.35;;;15.07;;
29382;SDS011;16365;51.598;7.668;2023-04-06T05:42:39;30.85;;;15.40;;
29382;SDS011;16365;51.598;7.668;2023-04-06T05:45:07;34.00;;;14.85;;
29382;SDS011;16365;51.598;7.668;2023-04-06T05:47:35;33.38;;;14.38;;
29382;SDS011;16365;51.598;7.668;2023-04-06T05:50:02;28.52;;;14.73;;
29382;SDS011;16365;51.598;7.668;2023-04-06T05:52:29;31.23;;;14.75;;
29382;SDS011;16365;51.598;7.668;2023-04-06T05:54:55;46.55;;;15.20;;
29382;SDS011;16365;51.598;7.668;2023-04-06T05:57:21;25.27;;;14.35;;
29382;SDS011;16365;51.598;7.668;2023-04-06T05:59:48;30.15;;;15.48;;
29382;SDS011;16365;51.598;7.668;2023-04-06T06:02:14;32.65;;;14.85;;
29382;SDS011;16365;51.598;7.668;2023-04-06T06:04:41;36.83;;;14.95;;
29382;SDS011;16365;51.598;7.668;2023-04-06T06:07:07;38.08;;;14.50;;
29382;SDS011;16365;51.598;7.668;2023-04-06T06:09:34;30.20;;;14.68;;
29382;SDS011;16365;51.598;7.668;2023-04-06T06:12:00;33.88;;;16.83;;
29382;SDS011;16365;51.598;7.668;2023-04-06T06:14:27;33.85;;;15.20;;
29382;SDS011;16365;51.598;7.668;2023-04-06T06:16:54;34.42;;;15.45;;
29382;SDS011;16365;51.598;7.668;2023-04-06T06:19:21;37.88;;;15.10;;
29382;SDS011;16365;51.598;7.668;2023-04-06T06:21:47;30.60;;;14.70;;
29382;SDS011;16365;51.598;7.668;2023-04-06T06:24:14;37.90;;;15.18;;
29382;SDS011;16365;51.598;7.668;2023-04-06T06:26:40;26.80;;;13.10;;
29382;SDS011;16365;51.598;7.668;2023-04-06T06:29:07;26.55;;;13.27;;
29382;SDS011;16365;51.598;7.668;2023-04-06T06:31:34;25.65;;;12.52;;
29382;SDS011;16365;51.598;7.668;2023-04-06T06:34:01;27.40;;;11.93;;
29382;SDS011;16365;51.598;7.668;2023-04-06T06:36:29;23.30;;;12.90;;
29382;SDS011;16365;51.598;7.668;2023-04-06T06:38:57;21.90;;;12.15;;
29382;SDS011;16365;51.598;7.668;2023-04-06T06:41:24;23.92;;;12.07;;
29382;SDS011;16365;51.598;7.668;2023-04-06T06:43:52;28.17;;;12.07;;
29382;SDS011;16365;51.598;7.668;2023-04-06T06:46:18;22.98;;;11.45;;
29382;SDS011;16365;51.598;7.668;2023-04-06T06:48:44;24.77;;;11.35;;
29382;SDS011;16365;51.598;7.668;2023-04-06T06:51:11;19.52;;;10.65;;
29382;SDS011;16365;51.598;7.668;2023-04-06T06:53:38;19.40;;;11.23;;
29382;SDS011;16365;51.598;7.668;2023-04-06T06:56:04;21.38;;;12.50;;
29382;SDS011;16365;51.598;7.668;2023-04-06T06:58:31;25.08;;;12.35;;
29382;SDS011;16365;51.598;7.668;2023-04-06T07:00:58;25.08;;;11.23;;
29382;SDS011;16365;51.598;7.668;2023-04-06T07:03:25;22.10;;;11.32;;
29382;SDS011;16365;51.598;7.668;2023-04-06T07:05:52;24.05;;;11.70;;
29382;SDS011;16365;51.598;7.668;2023-04-06T07:08:22;22.25;;;9.43;;
29382;SDS011;16365;51.598;7.668;2023-04-06T07:10:50;24.13;;;10.32;;
29382;SDS011;16365;51.598;7.668;2023-04-06T07:13:22;22.52;;;10.05;;
29382;SDS011;16365;51.598;7.668;2023-04-06T07:15:49;17.90;;;9.90;;
29382;SDS011;16365;51.598;7.668;2023-04-06T07:18:16;17.85;;;9.13;;
29382;SDS011;16365;51.598;7.668;2023-04-06T07:20:43;15.32;;;8.52;;
29382;SDS011;16365;51.598;7.668;2023-04-06T07:23:10;20.05;;;8.18;;
29382;SDS011;16365;51.598;7.668;2023-04-06T07:25:37;16.40;;;9.25;;
29382;SDS011;16365;51.598;7.668;2023-04-06T07:28:04;17.80;;;8.50;;
29382;SDS011;16365;51.598;7.668;2023-04-06T07:30:30;15.85;;;8.65;;
29382;SDS011;16365;51.598;7.668;2023-04-06T07:32:58;20.67;;;8.68;;
29382;SDS011;16365;51.598;7.668;2023-04-06T07:35:26;17.05;;;8.45;;
29382;SDS011;16365;51.598;7.668;2023-04-06T07:37:53;16.17;;;8.65;;
29382;SDS011;16365;51.598;7.668;2023-04-06T07:40:19;13.63;;;8.35;;
29382;SDS011;16365;51.598;7.668;2023-04-06T07:42:46;15.30;;;8.55;;
29382;SDS011;16365;51.598;7.668;2023-04-06T07:45:14;13.27;;;8.40;;
29382;SDS011;16365;51.598;7.668;2023-04-06T07:47:42;17.48;;;8.57;;
29382;SDS011;16365;51.598;7.668;2023-04-06T07:50:09;17.42;;;8.77;;
29382;SDS011;16365;51.598;7.668;2023-04-06T07:52:36;17.70;;;10.00;;
29382;SDS011;16365;51.598;7.668;2023-04-06T07:55:03;14.80;;;9.00;;
29382;SDS011;16365;51.598;7.668;2023-04-06T07:57:30;13.48;;;8.07;;
29382;SDS011;16365;51.598;7.668;2023-04-06T07:59:57;13.88;;;8.18;;
29382;SDS011;16365;51.598;7.668;2023-04-06T08:02:23;16.83;;;9.25;;
29382;SDS011;16365;51.598;7.668;2023-04-06T08:04:50;16.73;;;8.82;;
29382;SDS011;16365;51.598;7.668;2023-04-06T08:07:16;17.17;;;9.32;;
29382;SDS011;16365;51.598;7.668;2023-04-06T08:09:43;18.33;;;8.93;;
29382;SDS011;16365;51.598;7.668;2023-04-06T08:12:09;19.17;;;9.13;;
29382;SDS011;16365;51.598;7.668;2023-04-06T08:14:35;15.82;;;8.15;;
29382;SDS011;16365;51.598;7.668;2023-04-06T08:17:02;17.60;;;8.98;;
29382;SDS011;16365;51.598;7.668;2023-04-06T08:19:31;15.27;;;8.82;;
29382;SDS011;16365;51.598;7.668;2023-04-06T08:21:58;11.90;;;8.25;;
29382;SDS011;16365;51.598;7.668;2023-04-06T08:24:24;15.05;;;9.30;;
29382;SDS011;16365;51.598;7.668;2023-04-06T08:26:51;15.23;;;8.77;;
29382;SDS011;16365;51.598;7.668;2023-04-06T08:29:18;15.10;;;8.15;;
29382;SDS011;16365;51.598;7.668;2023-04-06T08:34:13;14.43;;;8.73;;
29382;SDS011;16365;51.598;7.668;2023-04-06T08:36:40;15.57;;;8.52;;
29382;SDS011;16365;51.598;7.668;2023-04-06T08:39:08;13.23;;;7.97;;
29382;SDS011;16365;51.598;7.668;2023-04-06T08:41:35;17.60;;;8.05;;
29382;SDS011;16365;51.598;7.668;2023-04-06T08:44:02;14.45;;;8.90;;
29382;SDS011;16365;51.598;7.668;2023-04-06T08:46:29;15.75;;;8.93;;
29382;SDS011;16365;51.598;7.668;2023-04-06T08:48:59;17.45;;;9.05;;
29382;SDS011;16365;51.598;7.668;2023-04-06T08:51:27;16.05;;;9.40;;
29382;SDS011;16365;51.598;7.668;2023-04-06T08:53:55;14.35;;;8.40;;
29382;SDS011;16365;51.598;7.668;2023-04-06T08:56:23;18.35;;;9.00;;
29382;SDS011;16365;51.598;7.668;2023-04-06T08:58:51;16.38;;;8.52;;
29382;SDS011;16365;51.598;7.668;2023-04-06T09:01:21;19.40;;;9.90;;
29382;SDS011;16365;51.598;7.668;2023-04-06T09:03:52;17.15;;;9.15;;
29382;SDS011;16365;51.598;7.668;2023-04-06T09:06:22;15.73;;;8.82;;
29382;SDS011;16365;51.598;7.668;2023-04-06T09:08:49;16.30;;;9.55;;
29382;SDS011;16365;51.598;7.668;2023-04-06T09:11:15;15.95;;;9.90;;
29382;SDS011;16365;51.598;7.668;2023-04-06T09:13:45;19.77;;;10.10;;
29382;SDS011;16365;51.598;7.668;2023-04-06T09:16:13;19.02;;;9.65;;
29382;SDS011;16365;51.598;7.668;2023-04-06T09:18:40;18.05;;;9.85;;
29382;SDS011;16365;51.598;7.668;2023-04-06T09:21:08;15.73;;;10.07;;
29382;SDS011;16365;51.598;7.668;2023-04-06T09:23:35;18.05;;;10.25;;
29382;SDS011;16365;51.598;7.668;2023-04-06T09:31:09;20.42;;;11.40;;
29382;SDS011;16365;51.598;7.668;2023-04-06T09:33:40;19.00;;;11.00;;
29382;SDS011;16365;51.598;7.668;2023-04-06T09:36:07;23.45;;;11.63;;
29382;SDS011;16365;51.598;7.668;2023-04-06T09:38:50;20.73;;;11.98;;
29382;SDS011;16365;51.598;7.668;2023-04-06T09:46:42;24.00;;;12.18;;
29382;SDS011;16365;51.598;7.668;2023-04-06T09:49:27;24.08;;;13.20;;
29382;SDS011;16365;51.598;7.668;2023-04-06T09:51:59;25.58;;;13.40;;
29382;SDS011;16365;51.598;7.668;2023-04-06T09:54:30;23.17;;;13.50;;
29382;SDS011;16365;51.598;7.668;2023-04-06T09:57:07;22.48;;;13.25;;
29382;SDS011;16365;51.598;7.668;2023-04-06T10:00:00;24.00;;;13.68;;
29382;SDS011;16365;51.598;7.668;2023-04-06T10:08:00;21.75;;;11.57;;
29382;SDS011;16365;51.598;7.668;2023-04-06T10:10:31;22.60;;;11.52;;
29382;SDS011;16365;51.598;7.668;2023-04-06T10:12:58;21.23;;;11.15;;
29382;SDS011;16365;51.598;7.668;2023-04-06T10:15:25;20.50;;;11.75;;
29382;SDS011;16365;51.598;7.668;2023-04-06T10:17:53;21.73;;;11.45;;
29382;SDS011;16365;51.598;7.668;2023-04-06T10:20:21;23.30;;;11.85;;
29382;SDS011;16365;51.598;7.668;2023-04-06T10:22:57;20.42;;;10.65;;
29382;SDS011;16365;51.598;7.668;2023-04-06T10:25:32;18.92;;;11.18;;
29382;SDS011;16365;51.598;7.668;2023-04-06T10:28:00;22.85;;;12.85;;
29382;SDS011;16365;51.598;7.668;2023-04-06T10:30:28;21.17;;;11.23;;
29382;SDS011;16365;51.598;7.668;2023-04-06T10:32:55;22.55;;;11.73;;
29382;SDS011;16365;51.598;7.668;2023-04-06T10:35:22;20.67;;;10.57;;
29382;SDS011;16365;51.598;7.668;2023-04-06T10:38:00;22.60;;;11.02;;
29382;SDS011;16365;51.598;7.668;2023-04-06T10:40:28;18.42;;;10.48;;
29382;SDS011;16365;51.598;7.668;2023-04-06T10:43:07;17.67;;;10.60;;
29382;SDS011;16365;51.598;7.668;2023-04-06T10:45:35;18.90;;;10.77;;
29382;SDS011;16365;51.598;7.668;2023-04-06T10:48:15;21.27;;;11.70;;
29382;SDS011;16365;51.598;7.668;2023-04-06T10:50:44;22.08;;;10.82;;
29382;SDS011;16365;51.598;7.668;2023-04-06T10:53:20;20.70;;;11.73;;
29382;SDS011;16365;51.598;7.668;2023-04-06T10:55:54;19.58;;;11.30;;
29382;SDS011;16365;51.598;7.668;2023-04-06T10:58:25;24.25;;;10.77;;
29382;SDS011;16365;51.598;7.668;2023-04-06T11:00:53;19.08;;;11.52;;
29382;SDS011;16365;51.598;7.668;2023-04-06T11:05:48;17.30;;;9.98;;
29382;SDS011;16365;51.598;7.668;2023-04-06T11:08:24;22.00;;;11.02;;
29382;SDS011;16365;51.598;7.668;2023-04-06T11:10:51;19.60;;;11.95;;
29382;SDS011;16365;51.598;7.668;2023-04-06T11:13:18;23.67;;;13.35;;
29382;SDS011;16365;51.598;7.668;2023-04-06T11:15:44;24.27;;;12.75;;
29382;SDS011;16365;51.598;7.668;2023-04-06T11:18:11;26.50;;;13.60;;
29382;SDS011;16365;51.598;7.668;2023-04-06T11:20:37;27.30;;;14.77;;
29382;SDS011;16365;51.598;7.668;2023-04-06T11:23:04;26.33;;;14.18;;
29382;SDS011;16365;51.598;7.668;2023-04-06T11:25:30;37.53;;;14.73;;
29382;SDS011;16365;51.598;7.668;2023-04-06T11:27:58;232.77;;;29.25;;
29382;SDS011;16365;51.598;7.668;2023-04-06T11:30:25;35.38;;;15.60;;
29382;SDS011;16365;51.598;7.668;2023-04-06T11:32:52;139.77;;;22.45;;
29382;SDS011;16365;51.598;7.668;2023-04-06T11:35:22;38.90;;;16.17;;
29382;SDS011;16365;51.598;7.668;2023-04-06T11:37:50;35.80;;;16.77;;
29382;SDS011;16365;51.598;7.668;2023-04-06T11:40:21;29.95;;;16.52;;
29382;SDS011;16365;51.598;7.668;2023-04-06T11:42:51;28.60;;;15.48;;
29382;SDS011;16365;51.598;7.668;2023-04-06T11:45:20;27.58;;;14.82;;
29382;SDS011;16365;51.598;7.668;2023-04-06T11:47:54;31.52;;;15.93;;
29382;SDS011;16365;51.598;7.668;2023-04-06T11:50:23;32.08;;;16.13;;
29382;SDS011;16365;51.598;7.668;2023-04-06T11:52:59;30.23;;;15.90;;
29382;SDS011;16365;51.598;7.668;2023-04-06T11:55:27;29.88;;;15.55;;
29382;SDS011;16365;51.598;7.668;2023-04-06T11:57:54;28.00;;;15.98;;
29382;SDS011;16365;51.598;7.668;2023-04-06T12:00:21;29.70;;;16.23;;
29382;SDS011;16365;51.598;7.668;2023-04-06T12:02:48;47.30;;;17.95;;
29382;SDS011;16365;51.598;7.668;2023-04-06T12:05:15;79.68;;;18.60;;
29382;SDS011;16365;51.598;7.668;2023-04-06T12:07:41;32.75;;;15.10;;
29382;SDS011;16365;51.598;7.668;2023-04-06T12:10:09;28.15;;;15.50;;
29382;SDS011;16365;51.598;7.668;2023-04-06T12:12:35;26.05;;;16.30;;
29382;SDS011;16365;51.598;7.668;2023-04-06T12:15:02;28.90;;;15.68;;
29382;SDS011;16365;51.598;7.668;2023-04-06T12:17:29;81.95;;;19.63;;
29382;SDS011;16365;51.598;7.668;2023-04-06T12:19:55;128.57;;;22.92;;
29382;SDS011;16365;51.598;7.668;2023-04-06T12:22:30;33.83;;;17.30;;
29382;SDS011;16365;51.598;7.668;2023-04-06T12:24:56;33.35;;;15.55;;
29382;SDS011;16365;51.598;7.668;2023-04-06T12:27:23;27.10;;;15.63;;
29382;SDS011;16365;51.598;7.668;2023-04-06T12:29:49;29.10;;;15.75;;
29382;SDS011;16365;51.598;7.668;2023-04-06T12:32:16;25.50;;;14.88;;
29382;SDS011;16365;51.598;7.668;2023-04-06T12:34:43;26.38;;;15.73;;
29382;SDS011;16365;51.598;7.668;2023-04-06T12:37:10;25.50;;;14.93;;
29382;SDS011;16365;51.598;7.668;2023-04-06T12:39:36;26.75;;;15.65;;
29382;SDS011;16365;51.598;7.668;2023-04-06T12:42:03;26.58;;;16.33;;
29382;SDS011;16365;51.598;7.668;2023-04-06T12:44:30;27.95;;;15.13;;
29382;SDS011;16365;51.598;7.668;2023-04-06T12:46:57;27.50;;;16.05;;
29382;SDS011;16365;51.598;7.668;2023-04-06T12:49:23;26.73;;;16.38;;
29382;SDS011;16365;51.598;7.668;2023-04-06T12:51:50;30.20;;;16.52;;
29382;SDS011;16365;51.598;7.668;2023-04-06T12:54:17;29.75;;;17.15;;
29382;SDS011;16365;51.598;7.668;2023-04-06T12:56:43;25.75;;;15.95;;
29382;SDS011;16365;51.598;7.668;2023-04-06T12:59:09;29.48;;;17.15;;
29382;SDS011;16365;51.598;7.668;2023-04-06T13:01:36;32.03;;;17.58;;
29382;SDS011;16365;51.598;7.668;2023-04-06T13:04:03;27.88;;;17.40;;
29382;SDS011;16365;51.598;7.668;2023-04-06T13:06:30;28.90;;;16.88;;
29382;SDS011;16365;51.598;7.668;2023-04-06T13:08:56;31.90;;;16.50;;
29382;SDS011;16365;51.598;7.668;2023-04-06T13:11:23;26.17;;;16.92;;
29382;SDS011;16365;51.598;7.668;2023-04-06T13:13:53;26.73;;;15.57;;
29382;SDS011;16365;51.598;7.668;2023-04-06T13:16:20;28.25;;;16.92;;
29382;SDS011;16365;51.598;7.668;2023-04-06T13:18:47;29.15;;;17.15;;
29382;SDS011;16365;51.598;7.668;2023-04-06T13:21:14;30.33;;;16.08;;
29382;SDS011;16365;51.598;7.668;2023-04-06T13:23:42;25.70;;;14.98;;
29382;SDS011;16365;51.598;7.668;2023-04-06T13:26:09;23.45;;;14.82;;
29382;SDS011;16365;51.598;7.668;2023-04-06T13:28:36;25.67;;;15.48;;
29382;SDS011;16365;51.598;7.668;2023-04-06T13:31:06;23.20;;;14.73;;
29382;SDS011;16365;51.598;7.668;2023-04-06T13:33:33;25.77;;;14.85;;
29382;SDS011;16365;51.598;7.668;2023-04-06T13:36:00;23.00;;;13.68;;
29382;SDS011;16365;51.598;7.668;2023-04-06T13:38:27;25.55;;;14.27;;
29382;SDS011;16365;51.598;7.668;2023-04-06T13:40:53;23.48;;;12.68;;
29382;SDS011;16365;51.598;7.668;2023-04-06T13:43:20;22.48;;;13.45;;
29382;SDS011;16365;51.598;7.668;2023-04-06T13:45:53;19.75;;;12.13;;
29382;SDS011;16365;51.598;7.668;2023-04-06T13:48:21;21.88;;;12.82;;
29382;SDS011;16365;51.598;7.668;2023-04-06T13:50:48;21.98;;;12.98;;
29382;SDS011;16365;51.598;7.668;2023-04-06T13:53:14;19.83;;;11.93;;
29382;SDS011;16365;51.598;7.668;2023-04-06T13:55:41;23.13;;;12.73;;
29382;SDS011;16365;51.598;7.668;2023-04-06T13:58:08;22.92;;;12.50;;
29382;SDS011;16365;51.598;7.668;2023-04-06T14:00:34;19.27;;;11.20;;
29382;SDS011;16365;51.598;7.668;2023-04-06T14:03:02;28.85;;;12.45;;
29382;SDS011;16365;51.598;7.668;2023-04-06T14:05:32;19.05;;;11.48;;
29382;SDS011;16365;51.598;7.668;2023-04-06T14:07:59;18.95;;;11.65;;
29382;SDS011;16365;51.598;7.668;2023-04-06T14:10:27;20.00;;;11.68;;
29382;SDS011;16365;51.598;7.668;2023-04-06T14:12:54;21.63;;;11.95;;
29382;SDS011;16365;51.598;7.668;2023-04-06T14:15:21;23.75;;;12.35;;
29382;SDS011;16365;51.598;7.668;2023-04-06T14:17:48;20.63;;;11.27;;
29382;SDS011;16365;51.598;7.668;2023-04-06T14:20:15;20.55;;;11.07;;
29382;SDS011;16365;51.598;7.668;2023-04-06T14:22:42;19.00;;;10.32;;
29382;SDS011;16365;51.598;7.668;2023-04-06T14:25:09;16.88;;;9.93;;
29382;SDS011;16365;51.598;7.668;2023-04-06T14:27:37;24.13;;;11.63;;
29382;SDS011;16365;51.598;7.668;2023-04-06T14:30:04;17.38;;;10.77;;
29382;SDS011;16365;51.598;7.668;2023-04-06T14:32:31;22.23;;;11.80;;
29382;SDS011;16365;51.598;7.668;2023-04-06T14:34:58;19.52;;;11.38;;
29382;SDS011;16365;51.598;7.668;2023-04-06T14:37:24;20.48;;;10.80;;
29382;SDS011;16365;51.598;7.668;2023-04-06T14:39:51;17.15;;;10.10;;
29382;SDS011;16365;51.598;7.668;2023-04-06T14:42:18;14.18;;;9.30;;
29382;SDS011;16365;51.598;7.668;2023-04-06T14:44:44;19.30;;;10.05;;